sensor_id;sensor_type;location;lat;lon;timestamp;P1;durP1;ratioP1;P2;durP2;ratioP2
908;SDS011;441;51.192;6.788;2023-11-22T00:01:51;8.80;;;8.50;;
908;SDS011;441;51.192;6.788;2023-11-22T00:04:18;9.23;;;8.93;;
908;SDS011;441;51.192;6.788;2023-11-22T00:06:45;8.87;;;8.57;;
908;SDS011;441;51.192;6.788;2023-11-22T00:09:12;9.00;;;8.80;;
908;SDS011;441;51.192;6.788;2023-11-22T00:11:41;9.43;;;9.13;;
908;SDS011;441;51.192;6.788;2023-11-22T00:14:07;9.13;;;8.83;;
908;SDS011;441;51.192;6.788;2023-11-22T00:16:34;8.63;;;8.43;;
908;SDS011;441;51.192;6.788;2023-11-22T00:19:02;8.87;;;8.47;;
908;SDS011;441;51.192;6.788;2023-11-22T00:21:30;8.70;;;8.40;;
908;SDS011;441;51.192;6.788;2023-11-22T00:23:57;8.40;;;8.20;;
908;SDS011;441;51.192;6.788;2023-11-22T00:26:24;8.67;;;8.47;;
908;SDS011;441;51.192;6.788;2023-11-22T00:28:52;8.97;;;8.67;;
908;SDS011;441;51.192;6.788;2023-11-22T00:31:19;8.67;;;8.40;;
908;SDS011;441;51.192;6.788;2023-11-22T00:33:46;8.27;;;8.03;;
908;SDS011;441;51.192;6.788;2023-11-22T00:36:13;9.03;;;8.63;;
908;SDS011;441;51.192;6.788;2023-11-22T00:38:41;9.03;;;8.63;;
908;SDS011;441;51.192;6.788;2023-11-22T00:41:09;8.13;;;7.73;;
908;SDS011;441;51.192;6.788;2023-11-22T00:43:36;8.57;;;8.27;;
908;SDS011;441;51.192;6.788;2023-11-22T00:46:05;8.63;;;8.33;;
908;SDS011;441;51.192;6.788;2023-11-22T00:48:32;8.97;;;8.67;;
908;SDS011;441;51.192;6.788;2023-11-22T00:50:59;8.60;;;8.40;;
908;SDS011;441;51.192;6.788;2023-11-22T00:53:26;10.27;;;9.10;;
908;SDS011;441;51.192;6.788;2023-11-22T00:55:55;9.20;;;8.90;;
908;SDS011;441;51.192;6.788;2023-11-22T00:58:21;8.80;;;8.47;;
908;SDS011;441;51.192;6.788;2023-11-22T01:00:48;9.23;;;8.93;;
908;SDS011;441;51.192;6.788;2023-11-22T01:03:16;8.97;;;8.67;;
908;SDS011;441;51.192;6.788;2023-11-22T01:05:44;8.47;;;8.17;;
908;SDS011;441;51.192;6.788;2023-11-22T01:08:11;8.33;;;8.13;;
908;SDS011;441;51.192;6.788;2023-11-22T01:10:38;9.00;;;8.63;;
908;SDS011;441;51.192;6.788;2023-11-22T01:13:05;10.33;;;9.83;;
908;SDS011;441;51.192;6.788;2023-11-22T01:15:32;8.40;;;8.20;;
908;SDS011;441;51.192;6.788;2023-11-22T01:18:00;8.70;;;8.50;;
908;SDS011;441;51.192;6.788;2023-11-22T01:20:28;9.47;;;9.13;;
908;SDS011;441;51.192;6.788;2023-11-22T01:22:55;8.80;;;8.60;;
908;SDS011;441;51.192;6.788;2023-11-22T01:25:22;8.80;;;8.50;;
908;SDS011;441;51.192;6.788;2023-11-22T01:27:48;8.53;;;8.23;;
908;SDS011;441;51.192;6.788;2023-11-22T01:30:15;8.97;;;8.70;;
908;SDS011;441;51.192;6.788;2023-11-22T01:32:43;9.00;;;8.70;;
908;SDS011;441;51.192;6.788;2023-11-22T01:35:11;8.70;;;8.30;;
908;SDS011;441;51.192;6.788;2023-11-22T01:37:39;9.70;;;9.40;;
908;SDS011;441;51.192;6.788;2023-11-22T01:40:06;9.40;;;9.10;;
908;SDS011;441;51.192;6.788;2023-11-22T01:42:34;8.73;;;8.50;;
908;SDS011;441;51.192;6.788;2023-11-22T01:45:02;9.60;;;9.30;;
908;SDS011;441;51.192;6.788;2023-11-22T01:47:30;8.40;;;8.20;;
908;SDS011;441;51.192;6.788;2023-11-22T01:49:57;9.60;;;9.30;;
908;SDS011;441;51.192;6.788;2023-11-22T01:52:24;9.00;;;8.70;;
908;SDS011;441;51.192;6.788;2023-11-22T01:54:53;8.40;;;8.10;;
908;SDS011;441;51.192;6.788;2023-11-22T01:57:20;7.90;;;7.70;;
908;SDS011;441;51.192;6.788;2023-11-22T01:59:47;8.67;;;8.47;;
908;SDS011;441;51.192;6.788;2023-11-22T02:02:14;8.90;;;8.60;;
908;SDS011;441;51.192;6.788;2023-11-22T02:04:41;8.83;;;8.63;;
908;SDS011;441;51.192;6.788;2023-11-22T02:07:08;8.50;;;8.23;;
908;SDS011;441;51.192;6.788;2023-11-22T02:09:35;8.73;;;8.43;;
908;SDS011;441;51.192;6.788;2023-11-22T02:12:04;8.60;;;8.30;;
908;SDS011;441;51.192;6.788;2023-11-22T02:14:31;9.40;;;9.10;;
908;SDS011;441;51.192;6.788;2023-11-22T02:16:59;9.33;;;9.03;;
908;SDS011;441;51.192;6.788;2023-11-22T02:19:26;9.70;;;9.40;;
908;SDS011;441;51.192;6.788;2023-11-22T02:21:55;9.70;;;9.30;;
908;SDS011;441;51.192;6.788;2023-11-22T02:24:23;8.53;;;8.30;;
908;SDS011;441;51.192;6.788;2023-11-22T02:26:51;8.73;;;8.53;;
908;SDS011;441;51.192;6.788;2023-11-22T02:29:18;8.90;;;8.70;;
908;SDS011;441;51.192;6.788;2023-11-22T02:31:45;9.00;;;8.70;;
908;SDS011;441;51.192;6.788;2023-11-22T02:34:12;9.00;;;8.70;;
908;SDS011;441;51.192;6.788;2023-11-22T02:36:41;8.50;;;8.10;;
908;SDS011;441;51.192;6.788;2023-11-22T02:39:09;9.93;;;9.53;;
908;SDS011;441;51.192;6.788;2023-11-22T02:41:40;9.07;;;8.80;;
908;SDS011;441;51.192;6.788;2023-11-22T02:44:07;8.30;;;8.10;;
908;SDS011;441;51.192;6.788;2023-11-22T02:46:34;9.50;;;9.20;;
908;SDS011;441;51.192;6.788;2023-11-22T02:49:01;9.40;;;9.10;;
908;SDS011;441;51.192;6.788;2023-11-22T02:51:29;8.93;;;8.63;;
908;SDS011;441;51.192;6.788;2023-11-22T02:53:56;9.47;;;9.17;;
908;SDS011;441;51.192;6.788;2023-11-22T02:56:23;10.37;;;9.97;;
908;SDS011;441;51.192;6.788;2023-11-22T02:58:52;9.23;;;8.93;;
908;SDS011;441;51.192;6.788;2023-11-22T03:01:19;9.73;;;9.33;;
908;SDS011;441;51.192;6.788;2023-11-22T03:03:46;9.47;;;9.20;;
908;SDS011;441;51.192;6.788;2023-11-22T03:06:12;8.70;;;8.40;;
908;SDS011;441;51.192;6.788;2023-11-22T03:08:40;8.20;;;8.00;;
908;SDS011;441;51.192;6.788;2023-11-22T03:11:07;8.57;;;8.37;;
908;SDS011;441;51.192;6.788;2023-11-22T03:13:34;9.10;;;8.90;;
908;SDS011;441;51.192;6.788;2023-11-22T03:16:02;10.03;;;9.63;;
908;SDS011;441;51.192;6.788;2023-11-22T03:18:30;9.30;;;9.10;;
908;SDS011;441;51.192;6.788;2023-11-22T03:20:57;8.70;;;8.50;;
908;SDS011;441;51.192;6.788;2023-11-22T03:23:24;9.67;;;9.47;;
908;SDS011;441;51.192;6.788;2023-11-22T03:25:51;8.93;;;8.63;;
908;SDS011;441;51.192;6.788;2023-11-22T03:28:18;8.90;;;8.60;;
908;SDS011;441;51.192;6.788;2023-11-22T03:30:45;8.97;;;8.67;;
908;SDS011;441;51.192;6.788;2023-11-22T03:33:13;9.97;;;9.67;;
908;SDS011;441;51.192;6.788;2023-11-22T03:35:40;9.47;;;9.17;;
908;SDS011;441;51.192;6.788;2023-11-22T03:38:08;9.03;;;8.83;;
908;SDS011;441;51.192;6.788;2023-11-22T03:40:35;9.43;;;9.13;;
908;SDS011;441;51.192;6.788;2023-11-22T03:43:01;8.80;;;8.60;;
908;SDS011;441;51.192;6.788;2023-11-22T03:45:28;8.63;;;8.43;;
908;SDS011;441;51.192;6.788;2023-11-22T03:47:55;9.43;;;9.03;;
908;SDS011;441;51.192;6.788;2023-11-22T03:50:23;9.47;;;8.83;;
908;SDS011;441;51.192;6.788;2023-11-22T03:52:51;9.53;;;9.23;;
908;SDS011;441;51.192;6.788;2023-11-22T03:55:17;9.80;;;9.50;;
908;SDS011;441;51.192;6.788;2023-11-22T03:57:44;8.27;;;8.07;;
908;SDS011;441;51.192;6.788;2023-11-22T04:00:11;9.13;;;8.83;;
908;SDS011;441;51.192;6.788;2023-11-22T04:02:39;9.67;;;9.30;;
908;SDS011;441;51.192;6.788;2023-11-22T04:05:07;8.97;;;8.70;;
908;SDS011;441;51.192;6.788;2023-11-22T04:07:35;8.93;;;8.60;;
908;SDS011;441;51.192;6.788;2023-11-22T04:10:04;10.30;;;10.00;;
908;SDS011;441;51.192;6.788;2023-11-22T04:12:32;9.60;;;9.30;;
908;SDS011;441;51.192;6.788;2023-11-22T04:14:58;9.90;;;9.60;;
908;SDS011;441;51.192;6.788;2023-11-22T04:17:25;9.73;;;9.43;;
908;SDS011;441;51.192;6.788;2023-11-22T04:19:52;9.63;;;9.40;;
908;SDS011;441;51.192;6.788;2023-11-22T04:22:19;8.97;;;8.70;;
908;SDS011;441;51.192;6.788;2023-11-22T04:24:47;9.20;;;9.00;;
908;SDS011;441;51.192;6.788;2023-11-22T04:27:14;8.70;;;8.43;;
908;SDS011;441;51.192;6.788;2023-11-22T04:29:41;9.23;;;8.93;;
908;SDS011;441;51.192;6.788;2023-11-22T04:32:08;9.73;;;9.50;;
908;SDS011;441;51.192;6.788;2023-11-22T04:34:35;10.27;;;9.87;;
908;SDS011;441;51.192;6.788;2023-11-22T04:37:02;9.60;;;9.30;;
908;SDS011;441;51.192;6.788;2023-11-22T04:39:30;10.20;;;9.90;;
908;SDS011;441;51.192;6.788;2023-11-22T04:41:58;9.57;;;9.23;;
908;SDS011;441;51.192;6.788;2023-11-22T04:44:25;10.30;;;10.00;;
908;SDS011;441;51.192;6.788;2023-11-22T04:46:52;9.10;;;8.90;;
908;SDS011;441;51.192;6.788;2023-11-22T04:49:19;10.37;;;9.97;;
908;SDS011;441;51.192;6.788;2023-11-22T04:51:46;9.77;;;9.40;;
908;SDS011;441;51.192;6.788;2023-11-22T04:54:14;10.47;;;10.10;;
908;SDS011;441;51.192;6.788;2023-11-22T04:56:41;10.57;;;10.17;;
908;SDS011;441;51.192;6.788;2023-11-22T04:59:09;9.50;;;9.30;;
908;SDS011;441;51.192;6.788;2023-11-22T05:01:37;10.30;;;10.00;;
908;SDS011;441;51.192;6.788;2023-11-22T05:04:04;11.47;;;11.17;;
908;SDS011;441;51.192;6.788;2023-11-22T05:06:31;11.00;;;10.70;;
908;SDS011;441;51.192;6.788;2023-11-22T05:08:58;10.43;;;10.17;;
908;SDS011;441;51.192;6.788;2023-11-22T05:11:25;11.67;;;11.20;;
908;SDS011;441;51.192;6.788;2023-11-22T05:13:51;10.40;;;10.10;;
908;SDS011;441;51.192;6.788;2023-11-22T05:16:20;10.83;;;10.53;;
908;SDS011;441;51.192;6.788;2023-11-22T05:18:46;10.83;;;10.53;;
908;SDS011;441;51.192;6.788;2023-11-22T05:21:13;10.83;;;10.53;;
908;SDS011;441;51.192;6.788;2023-11-22T05:23:40;10.17;;;9.87;;
908;SDS011;441;51.192;6.788;2023-11-22T05:26:07;10.13;;;9.83;;
908;SDS011;441;51.192;6.788;2023-11-22T05:28:34;10.07;;;9.77;;
908;SDS011;441;51.192;6.788;2023-11-22T05:31:01;10.10;;;9.80;;
908;SDS011;441;51.192;6.788;2023-11-22T05:33:29;10.90;;;10.50;;
908;SDS011;441;51.192;6.788;2023-11-22T05:35:57;10.30;;;9.90;;
908;SDS011;441;51.192;6.788;2023-11-22T05:38:24;10.37;;;10.07;;
908;SDS011;441;51.192;6.788;2023-11-22T05:40:52;10.93;;;10.53;;
908;SDS011;441;51.192;6.788;2023-11-22T05:43:18;9.97;;;9.67;;
908;SDS011;441;51.192;6.788;2023-11-22T05:45:50;11.80;;;11.40;;
908;SDS011;441;51.192;6.788;2023-11-22T05:48:17;10.63;;;10.10;;
908;SDS011;441;51.192;6.788;2023-11-22T05:50:45;10.47;;;10.17;;
908;SDS011;441;51.192;6.788;2023-11-22T05:53:13;10.67;;;10.27;;
908;SDS011;441;51.192;6.788;2023-11-22T05:55:44;9.40;;;9.17;;
908;SDS011;441;51.192;6.788;2023-11-22T05:58:11;9.47;;;9.17;;
908;SDS011;441;51.192;6.788;2023-11-22T06:00:41;10.80;;;10.50;;
908;SDS011;441;51.192;6.788;2023-11-22T06:03:08;11.07;;;10.67;;
908;SDS011;441;51.192;6.788;2023-11-22T06:05:35;10.23;;;9.93;;
908;SDS011;441;51.192;6.788;2023-11-22T06:08:04;10.60;;;10.30;;
908;SDS011;441;51.192;6.788;2023-11-22T06:10:31;11.83;;;11.43;;
908;SDS011;441;51.192;6.788;2023-11-22T06:12:58;11.23;;;10.93;;
908;SDS011;441;51.192;6.788;2023-11-22T06:15:25;11.20;;;10.80;;
908;SDS011;441;51.192;6.788;2023-11-22T06:17:52;12.10;;;11.70;;
908;SDS011;441;51.192;6.788;2023-11-22T06:20:19;11.77;;;11.47;;
908;SDS011;441;51.192;6.788;2023-11-22T06:22:49;12.60;;;12.20;;
908;SDS011;441;51.192;6.788;2023-11-22T06:25:17;11.57;;;11.27;;
908;SDS011;441;51.192;6.788;2023-11-22T06:27:44;11.63;;;11.23;;
908;SDS011;441;51.192;6.788;2023-11-22T06:30:11;12.33;;;11.93;;
908;SDS011;441;51.192;6.788;2023-11-22T06:32:39;11.83;;;11.40;;
908;SDS011;441;51.192;6.788;2023-11-22T06:35:08;11.67;;;11.27;;
908;SDS011;441;51.192;6.788;2023-11-22T06:37:36;12.10;;;11.70;;
908;SDS011;441;51.192;6.788;2023-11-22T06:40:03;13.33;;;12.30;;
908;SDS011;441;51.192;6.788;2023-11-22T06:42:32;12.30;;;11.60;;
908;SDS011;441;51.192;6.788;2023-11-22T06:44:59;16.10;;;15.03;;
908;SDS011;441;51.192;6.788;2023-11-22T06:47:27;12.70;;;11.30;;
908;SDS011;441;51.192;6.788;2023-11-22T06:49:54;15.53;;;14.03;;
908;SDS011;441;51.192;6.788;2023-11-22T06:52:21;19.27;;;17.20;;
908;SDS011;441;51.192;6.788;2023-11-22T06:54:47;15.30;;;13.87;;
908;SDS011;441;51.192;6.788;2023-11-22T06:57:14;13.97;;;12.73;;
908;SDS011;441;51.192;6.788;2023-11-22T06:59:42;13.60;;;12.60;;
908;SDS011;441;51.192;6.788;2023-11-22T07:02:09;15.27;;;13.80;;
908;SDS011;441;51.192;6.788;2023-11-22T07:04:36;14.90;;;13.97;;
908;SDS011;441;51.192;6.788;2023-11-22T07:07:04;14.07;;;12.87;;
908;SDS011;441;51.192;6.788;2023-11-22T07:09:30;13.87;;;12.63;;
908;SDS011;441;51.192;6.788;2023-11-22T07:11:58;11.97;;;11.20;;
908;SDS011;441;51.192;6.788;2023-11-22T07:14:25;13.80;;;12.37;;
908;SDS011;441;51.192;6.788;2023-11-22T07:16:53;13.47;;;12.33;;
908;SDS011;441;51.192;6.788;2023-11-22T07:19:20;13.57;;;12.40;;
908;SDS011;441;51.192;6.788;2023-11-22T07:21:48;14.60;;;13.27;;
908;SDS011;441;51.192;6.788;2023-11-22T07:24:15;14.33;;;13.53;;
908;SDS011;441;51.192;6.788;2023-11-22T07:26:43;15.07;;;13.83;;
908;SDS011;441;51.192;6.788;2023-11-22T07:29:10;15.13;;;14.17;;
908;SDS011;441;51.192;6.788;2023-11-22T07:31:37;15.10;;;14.20;;
908;SDS011;441;51.192;6.788;2023-11-22T07:34:06;14.80;;;14.00;;
908;SDS011;441;51.192;6.788;2023-11-22T07:36:36;15.03;;;14.20;;
908;SDS011;441;51.192;6.788;2023-11-22T07:39:05;14.97;;;14.17;;
908;SDS011;441;51.192;6.788;2023-11-22T07:41:32;14.70;;;13.70;;
908;SDS011;441;51.192;6.788;2023-11-22T07:44:00;14.80;;;13.70;;
908;SDS011;441;51.192;6.788;2023-11-22T07:46:26;13.60;;;12.90;;
908;SDS011;441;51.192;6.788;2023-11-22T07:48:53;14.27;;;12.97;;
908;SDS011;441;51.192;6.788;2023-11-22T07:51:22;15.63;;;14.53;;
908;SDS011;441;51.192;6.788;2023-11-22T07:53:49;14.97;;;13.77;;
908;SDS011;441;51.192;6.788;2023-11-22T07:56:16;14.60;;;13.70;;
908;SDS011;441;51.192;6.788;2023-11-22T07:58:43;14.63;;;13.73;;
908;SDS011;441;51.192;6.788;2023-11-22T08:01:10;15.00;;;13.70;;
908;SDS011;441;51.192;6.788;2023-11-22T08:03:38;17.03;;;15.90;;
908;SDS011;441;51.192;6.788;2023-11-22T08:06:09;14.67;;;13.97;;
908;SDS011;441;51.192;6.788;2023-11-22T08:08:37;14.73;;;14.03;;
908;SDS011;441;51.192;6.788;2023-11-22T08:11:04;14.03;;;13.33;;
908;SDS011;441;51.192;6.788;2023-11-22T08:13:39;14.87;;;13.70;;
908;SDS011;441;51.192;6.788;2023-11-22T08:16:08;14.30;;;13.33;;
908;SDS011;441;51.192;6.788;2023-11-22T08:18:35;14.23;;;13.57;;
908;SDS011;441;51.192;6.788;2023-11-22T08:21:02;12.00;;;11.50;;
908;SDS011;441;51.192;6.788;2023-11-22T08:23:29;12.47;;;11.27;;
908;SDS011;441;51.192;6.788;2023-11-22T08:25:58;13.30;;;12.40;;
908;SDS011;441;51.192;6.788;2023-11-22T08:28:25;15.07;;;14.07;;
908;SDS011;441;51.192;6.788;2023-11-22T08:30:54;12.50;;;12.10;;
908;SDS011;441;51.192;6.788;2023-11-22T08:33:21;12.50;;;11.60;;
908;SDS011;441;51.192;6.788;2023-11-22T08:35:48;12.60;;;11.97;;
908;SDS011;441;51.192;6.788;2023-11-22T08:38:17;12.90;;;12.40;;
908;SDS011;441;51.192;6.788;2023-11-22T08:40:44;12.03;;;11.50;;
908;SDS011;441;51.192;6.788;2023-11-22T08:43:13;12.37;;;11.87;;
908;SDS011;441;51.192;6.788;2023-11-22T08:45:41;12.37;;;11.67;;
908;SDS011;441;51.192;6.788;2023-11-22T08:48:09;11.90;;;11.50;;
908;SDS011;441;51.192;6.788;2023-11-22T08:50:36;11.87;;;11.40;;
908;SDS011;441;51.192;6.788;2023-11-22T08:53:03;13.03;;;12.43;;
908;SDS011;441;51.192;6.788;2023-11-22T08:55:30;12.80;;;12.30;;
908;SDS011;441;51.192;6.788;2023-11-22T08:57:58;11.73;;;11.33;;
908;SDS011;441;51.192;6.788;2023-11-22T09:00:27;12.90;;;12.30;;
908;SDS011;441;51.192;6.788;2023-11-22T09:02:57;11.83;;;11.43;;
908;SDS011;441;51.192;6.788;2023-11-22T09:05:24;12.40;;;11.87;;
908;SDS011;441;51.192;6.788;2023-11-22T09:07:52;13.63;;;12.97;;
908;SDS011;441;51.192;6.788;2023-11-22T09:10:20;12.90;;;12.40;;
908;SDS011;441;51.192;6.788;2023-11-22T09:12:47;12.43;;;11.73;;
908;SDS011;441;51.192;6.788;2023-11-22T09:15:14;12.60;;;12.10;;
908;SDS011;441;51.192;6.788;2023-11-22T09:17:46;12.37;;;11.80;;
908;SDS011;441;51.192;6.788;2023-11-22T09:20:13;11.60;;;11.20;;
908;SDS011;441;51.192;6.788;2023-11-22T09:22:41;12.57;;;12.07;;
908;SDS011;441;51.192;6.788;2023-11-22T09:25:12;12.57;;;12.17;;
908;SDS011;441;51.192;6.788;2023-11-22T09:27:41;14.07;;;13.57;;
908;SDS011;441;51.192;6.788;2023-11-22T09:30:11;12.40;;;12.00;;
908;SDS011;441;51.192;6.788;2023-11-22T09:32:46;12.57;;;12.10;;
908;SDS011;441;51.192;6.788;2023-11-22T09:35:13;13.27;;;12.57;;
908;SDS011;441;51.192;6.788;2023-11-22T09:37:41;13.00;;;12.30;;
908;SDS011;441;51.192;6.788;2023-11-22T09:40:10;11.57;;;11.23;;
908;SDS011;441;51.192;6.788;2023-11-22T09:42:39;13.83;;;13.30;;
908;SDS011;441;51.192;6.788;2023-11-22T09:45:06;13.47;;;12.87;;
908;SDS011;441;51.192;6.788;2023-11-22T09:47:34;12.60;;;12.20;;
908;SDS011;441;51.192;6.788;2023-11-22T09:50:03;13.73;;;13.23;;
908;SDS011;441;51.192;6.788;2023-11-22T09:52:35;11.77;;;11.30;;
908;SDS011;441;51.192;6.788;2023-11-22T09:55:07;12.73;;;12.30;;
908;SDS011;441;51.192;6.788;2023-11-22T09:57:35;12.30;;;11.90;;
908;SDS011;441;51.192;6.788;2023-11-22T10:00:05;12.97;;;12.57;;
908;SDS011;441;51.192;6.788;2023-11-22T10:02:39;12.97;;;12.57;;
908;SDS011;441;51.192;6.788;2023-11-22T10:05:07;11.67;;;11.27;;
908;SDS011;441;51.192;6.788;2023-11-22T10:07:34;12.20;;;11.80;;
908;SDS011;441;51.192;6.788;2023-11-22T10:10:02;12.10;;;11.60;;
908;SDS011;441;51.192;6.788;2023-11-22T10:12:30;11.80;;;11.13;;
908;SDS011;441;51.192;6.788;2023-11-22T10:15:07;12.90;;;12.30;;
908;SDS011;441;51.192;6.788;2023-11-22T10:17:38;11.20;;;10.73;;
908;SDS011;441;51.192;6.788;2023-11-22T10:20:05;12.07;;;11.63;;
908;SDS011;441;51.192;6.788;2023-11-22T10:22:44;12.63;;;12.20;;
908;SDS011;441;51.192;6.788;2023-11-22T10:25:13;13.93;;;13.13;;
908;SDS011;441;51.192;6.788;2023-11-22T10:27:43;12.13;;;11.80;;
908;SDS011;441;51.192;6.788;2023-11-22T10:30:11;11.83;;;11.53;;
908;SDS011;441;51.192;6.788;2023-11-22T10:32:39;12.30;;;11.80;;
908;SDS011;441;51.192;6.788;2023-11-22T10:35:07;12.17;;;11.87;;
908;SDS011;441;51.192;6.788;2023-11-22T10:37:34;12.60;;;12.20;;
908;SDS011;441;51.192;6.788;2023-11-22T10:40:03;12.80;;;12.40;;
908;SDS011;441;51.192;6.788;2023-11-22T10:42:34;11.90;;;11.40;;
908;SDS011;441;51.192;6.788;2023-11-22T10:45:02;12.30;;;11.93;;
908;SDS011;441;51.192;6.788;2023-11-22T10:47:32;12.00;;;11.60;;
908;SDS011;441;51.192;6.788;2023-11-22T10:50:04;12.20;;;11.90;;
908;SDS011;441;51.192;6.788;2023-11-22T10:52:33;12.83;;;12.33;;
908;SDS011;441;51.192;6.788;2023-11-22T10:55:03;12.97;;;12.57;;
908;SDS011;441;51.192;6.788;2023-11-22T10:57:32;12.80;;;12.30;;
908;SDS011;441;51.192;6.788;2023-11-22T11:00:04;12.10;;;11.70;;
908;SDS011;441;51.192;6.788;2023-11-22T11:02:34;11.70;;;11.30;;
908;SDS011;441;51.192;6.788;2023-11-22T11:05:08;12.80;;;12.40;;
908;SDS011;441;51.192;6.788;2023-11-22T11:07:43;12.77;;;12.27;;
908;SDS011;441;51.192;6.788;2023-11-22T11:10:16;11.97;;;11.67;;
908;SDS011;441;51.192;6.788;2023-11-22T11:12:45;12.37;;;11.93;;
908;SDS011;441;51.192;6.788;2023-11-22T11:15:13;11.77;;;11.37;;
908;SDS011;441;51.192;6.788;2023-11-22T11:17:42;11.37;;;10.97;;
908;SDS011;441;51.192;6.788;2023-11-22T11:20:12;10.90;;;10.50;;
908;SDS011;441;51.192;6.788;2023-11-22T11:22:42;12.13;;;11.63;;
908;SDS011;441;51.192;6.788;2023-11-22T11:25:13;11.97;;;11.57;;
908;SDS011;441;51.192;6.788;2023-11-22T11:27:42;11.00;;;10.70;;
908;SDS011;441;51.192;6.788;2023-11-22T11:33:13;11.90;;;11.50;;
908;SDS011;441;51.192;6.788;2023-11-22T11:35:42;13.10;;;12.63;;
908;SDS011;441;51.192;6.788;2023-11-22T11:38:12;10.80;;;10.40;;
908;SDS011;441;51.192;6.788;2023-11-22T11:40:40;11.90;;;11.60;;
908;SDS011;441;51.192;6.788;2023-11-22T11:43:09;12.43;;;11.97;;
908;SDS011;441;51.192;6.788;2023-11-22T11:45:37;11.33;;;10.80;;
908;SDS011;441;51.192;6.788;2023-11-22T11:48:05;10.93;;;10.63;;
908;SDS011;441;51.192;6.788;2023-11-22T11:50:33;12.43;;;12.00;;
908;SDS011;441;51.192;6.788;2023-11-22T11:53:00;11.63;;;11.23;;
908;SDS011;441;51.192;6.788;2023-11-22T11:55:27;12.00;;;11.60;;
908;SDS011;441;51.192;6.788;2023-11-22T11:57:54;11.00;;;10.70;;
908;SDS011;441;51.192;6.788;2023-11-22T12:00:23;12.27;;;11.87;;
908;SDS011;441;51.192;6.788;2023-11-22T12:02:50;12.60;;;12.10;;
908;SDS011;441;51.192;6.788;2023-11-22T12:05:20;12.10;;;11.80;;
908;SDS011;441;51.192;6.788;2023-11-22T12:07:47;12.37;;;11.97;;
908;SDS011;441;51.192;6.788;2023-11-22T12:10:14;12.47;;;11.77;;
908;SDS011;441;51.192;6.788;2023-11-22T12:12:43;13.10;;;12.70;;
908;SDS011;441;51.192;6.788;2023-11-22T12:15:11;13.03;;;12.67;;
908;SDS011;441;51.192;6.788;2023-11-22T12:17:41;11.83;;;11.53;;
908;SDS011;441;51.192;6.788;2023-11-22T12:20:10;11.90;;;11.60;;
908;SDS011;441;51.192;6.788;2023-11-22T12:22:38;13.03;;;12.70;;
908;SDS011;441;51.192;6.788;2023-11-22T12:25:07;12.33;;;11.97;;
908;SDS011;441;51.192;6.788;2023-11-22T12:27:38;11.53;;;11.17;;
908;SDS011;441;51.192;6.788;2023-11-22T12:30:06;10.93;;;10.63;;
908;SDS011;441;51.192;6.788;2023-11-22T12:32:34;12.37;;;11.87;;
908;SDS011;441;51.192;6.788;2023-11-22T12:35:08;11.57;;;11.20;;
908;SDS011;441;51.192;6.788;2023-11-22T12:37:37;10.87;;;10.57;;
908;SDS011;441;51.192;6.788;2023-11-22T12:40:09;12.67;;;12.30;;
908;SDS011;441;51.192;6.788;2023-11-22T12:42:45;12.37;;;12.07;;
908;SDS011;441;51.192;6.788;2023-11-22T12:45:23;12.50;;;12.10;;
908;SDS011;441;51.192;6.788;2023-11-22T12:47:50;12.00;;;11.70;;
908;SDS011;441;51.192;6.788;2023-11-22T12:50:35;11.23;;;10.93;;
908;SDS011;441;51.192;6.788;2023-11-22T12:53:07;11.70;;;11.40;;
908;SDS011;441;51.192;6.788;2023-11-22T12:55:35;12.10;;;11.60;;
908;SDS011;441;51.192;6.788;2023-11-22T12:58:03;11.60;;;11.30;;
908;SDS011;441;51.192;6.788;2023-11-22T13:00:29;11.63;;;11.33;;
908;SDS011;441;51.192;6.788;2023-11-22T13:02:57;10.50;;;10.23;;
908;SDS011;441;51.192;6.788;2023-11-22T13:05:24;10.20;;;9.90;;
908;SDS011;441;51.192;6.788;2023-11-22T13:07:52;11.00;;;10.70;;
908;SDS011;441;51.192;6.788;2023-11-22T13:10:19;11.40;;;11.10;;
908;SDS011;441;51.192;6.788;2023-11-22T13:12:50;11.03;;;10.73;;
908;SDS011;441;51.192;6.788;2023-11-22T13:15:19;11.27;;;10.97;;
908;SDS011;441;51.192;6.788;2023-11-22T13:17:48;10.53;;;10.23;;
908;SDS011;441;51.192;6.788;2023-11-22T13:20:16;11.27;;;10.90;;
908;SDS011;441;51.192;6.788;2023-11-22T13:22:45;11.57;;;11.27;;
908;SDS011;441;51.192;6.788;2023-11-22T13:25:13;12.83;;;12.33;;
908;SDS011;441;51.192;6.788;2023-11-22T13:27:41;12.00;;;11.70;;
908;SDS011;441;51.192;6.788;2023-11-22T13:30:09;12.13;;;11.73;;
908;SDS011;441;51.192;6.788;2023-11-22T13:32:36;11.67;;;11.37;;
908;SDS011;441;51.192;6.788;2023-11-22T13:35:06;10.60;;;10.30;;
908;SDS011;441;51.192;6.788;2023-11-22T13:37:39;11.33;;;11.03;;
908;SDS011;441;51.192;6.788;2023-11-22T13:40:08;11.40;;;11.10;;
908;SDS011;441;51.192;6.788;2023-11-22T13:42:41;11.37;;;11.07;;
908;SDS011;441;51.192;6.788;2023-11-22T13:45:09;11.97;;;11.67;;
908;SDS011;441;51.192;6.788;2023-11-22T13:47:40;11.30;;;11.00;;
908;SDS011;441;51.192;6.788;2023-11-22T13:50:09;12.03;;;11.73;;
908;SDS011;441;51.192;6.788;2023-11-22T13:52:36;11.10;;;10.80;;
908;SDS011;441;51.192;6.788;2023-11-22T13:55:04;11.90;;;11.57;;
908;SDS011;441;51.192;6.788;2023-11-22T13:57:35;11.30;;;10.90;;
908;SDS011;441;51.192;6.788;2023-11-22T14:00:03;11.43;;;11.13;;
908;SDS011;441;51.192;6.788;2023-11-22T14:02:34;10.97;;;10.67;;
908;SDS011;441;51.192;6.788;2023-11-22T14:05:01;11.90;;;11.60;;
908;SDS011;441;51.192;6.788;2023-11-22T14:07:32;11.40;;;11.10;;
908;SDS011;441;51.192;6.788;2023-11-22T14:10:00;10.33;;;10.03;;
908;SDS011;441;51.192;6.788;2023-11-22T14:12:28;11.10;;;10.43;;
908;SDS011;441;51.192;6.788;2023-11-22T14:14:55;11.40;;;11.10;;
908;SDS011;441;51.192;6.788;2023-11-22T14:17:24;10.97;;;10.67;;
908;SDS011;441;51.192;6.788;2023-11-22T14:19:52;10.40;;;10.10;;
908;SDS011;441;51.192;6.788;2023-11-22T14:22:20;11.30;;;11.00;;
908;SDS011;441;51.192;6.788;2023-11-22T14:24:47;9.90;;;9.70;;
908;SDS011;441;51.192;6.788;2023-11-22T14:27:14;10.57;;;10.33;;
908;SDS011;441;51.192;6.788;2023-11-22T14:29:41;11.00;;;10.73;;
908;SDS011;441;51.192;6.788;2023-11-22T14:32:08;11.20;;;10.80;;
908;SDS011;441;51.192;6.788;2023-11-22T14:34:36;11.23;;;10.93;;
908;SDS011;441;51.192;6.788;2023-11-22T14:37:03;9.70;;;9.50;;
908;SDS011;441;51.192;6.788;2023-11-22T14:39:31;10.70;;;10.40;;
908;SDS011;441;51.192;6.788;2023-11-22T14:41:59;10.40;;;10.10;;
908;SDS011;441;51.192;6.788;2023-11-22T14:44:26;10.30;;;10.10;;
908;SDS011;441;51.192;6.788;2023-11-22T14:46:53;10.30;;;10.03;;
908;SDS011;441;51.192;6.788;2023-11-22T14:49:20;11.03;;;10.63;;
908;SDS011;441;51.192;6.788;2023-11-22T14:51:48;10.80;;;10.60;;
908;SDS011;441;51.192;6.788;2023-11-22T14:54:15;11.07;;;10.83;;
908;SDS011;441;51.192;6.788;2023-11-22T14:56:42;10.90;;;10.60;;
908;SDS011;441;51.192;6.788;2023-11-22T14:59:10;11.83;;;11.53;;
908;SDS011;441;51.192;6.788;2023-11-22T15:01:38;10.77;;;10.47;;
908;SDS011;441;51.192;6.788;2023-11-22T15:04:06;11.30;;;10.97;;
908;SDS011;441;51.192;6.788;2023-11-22T15:06:34;11.07;;;10.70;;
908;SDS011;441;51.192;6.788;2023-11-22T15:09:03;12.97;;;12.67;;
908;SDS011;441;51.192;6.788;2023-11-22T15:11:35;11.53;;;11.23;;
908;SDS011;441;51.192;6.788;2023-11-22T15:14:02;10.30;;;10.10;;
908;SDS011;441;51.192;6.788;2023-11-22T15:16:29;10.40;;;10.10;;
908;SDS011;441;51.192;6.788;2023-11-22T15:18:56;9.40;;;9.20;;
908;SDS011;441;51.192;6.788;2023-11-22T15:21:25;9.40;;;9.10;;
908;SDS011;441;51.192;6.788;2023-11-22T15:23:53;10.10;;;9.83;;
908;SDS011;441;51.192;6.788;2023-11-22T15:26:22;10.73;;;10.43;;
908;SDS011;441;51.192;6.788;2023-11-22T15:28:49;15.90;;;14.47;;
908;SDS011;441;51.192;6.788;2023-11-22T15:31:16;70.57;;;41.43;;
908;SDS011;441;51.192;6.788;2023-11-22T15:33:43;226.27;;;109.63;;